createdAt,value
2018-06-18T00:00:31.796Z,72.09
2018-06-18T00:01:12.337Z,71.8
2018-06-18T00:01:52.903Z,71.8
2018-06-18T00:02:33.420Z,72
2018-06-18T00:03:13.961Z,72.28
2018-06-18T00:03:54.496Z,72.96
2018-06-18T00:04:35.008Z,72.19
2018-06-18T00:05:15.525Z,72.77
2018-06-18T00:05:56.177Z,72.77
2018-06-18T00:06:36.687Z,72.86
2018-06-18T00:07:17.216Z,72.83
2018-06-18T00:07:57.738Z,73.11
2018-06-18T00:08:38.239Z,73.5
2018-06-18T00:09:18.757Z,73.69
2018-06-18T00:09:59.284Z,73.6
2018-06-18T00:10:39.891Z,74.37
2018-06-18T00:11:20.345Z,73.5
2018-06-18T00:12:00.878Z,73.41
2018-06-18T00:12:41.400Z,73.6
2018-06-18T00:13:21.922Z,73.6
2018-06-18T00:14:02.443Z,73.5
2018-06-18T00:14:42.967Z,73.21
2018-06-18T00:15:23.495Z,73.21
2018-06-18T00:16:04.018Z,73.11
2018-06-18T00:16:44.551Z,73.41
2018-06-18T00:17:25.100Z,73.21
2018-06-18T00:18:05.618Z,73.02
2018-06-18T00:18:46.156Z,72.83
2018-06-18T00:19:26.775Z,73.02
2018-06-18T00:20:07.254Z,73.31
2018-06-18T00:20:47.751Z,73.21
2018-06-18T00:21:28.254Z,73.44
2018-06-18T00:22:08.772Z,73.25
2018-06-18T00:22:49.281Z,72.77
2018-06-18T00:23:29.808Z,72.73
2018-06-18T00:24:10.321Z,72.83
2018-06-18T00:24:50.847Z,72.63
2018-06-18T00:25:31.382Z,72.83
2018-06-18T00:26:11.903Z,72.83
2018-06-18T00:26:52.419Z,72.58
2018-06-18T00:27:32.938Z,72.15
2018-06-18T00:28:13.486Z,72.83
2018-06-18T00:28:54.008Z,72.63
2018-06-18T00:29:34.539Z,72.73
2018-06-18T00:30:15.066Z,72.54
2018-06-18T00:30:55.582Z,72.83
2018-06-18T00:31:36.129Z,72.83
2018-06-18T00:32:16.650Z,73.21
2018-06-18T00:32:57.184Z,73.21
2018-06-18T00:33:37.701Z,73.02
2018-06-18T00:34:18.232Z,72.92
2018-06-18T00:34:58.743Z,72.73
2018-06-18T00:35:39.291Z,72.73
2018-06-18T00:36:19.757Z,73.02
2018-06-18T00:37:00.272Z,73.41
2018-06-18T00:37:40.805Z,73.31
2018-06-18T00:38:21.350Z,73.21
2018-06-18T00:39:01.866Z,73.5
2018-06-18T00:39:42.409Z,73.5
2018-06-18T00:40:22.931Z,73.5
2018-06-18T00:41:03.459Z,73.21
2018-06-18T00:41:43.985Z,73.31
2018-06-18T00:42:24.534Z,73.41
2018-06-18T00:43:05.049Z,73.57
2018-06-18T00:43:45.578Z,73.6
2018-06-18T00:44:26.097Z,73.47
2018-06-18T00:45:06.617Z,73.31
2018-06-18T00:45:47.148Z,73.21
2018-06-18T00:46:27.685Z,73.6
2018-06-18T00:47:08.200Z,73.47
2018-06-18T00:47:48.729Z,74.08
2018-06-18T00:48:29.239Z,74.14
2018-06-18T00:49:09.759Z,73.99
2018-06-18T00:49:50.286Z,73.47
2018-06-18T00:50:30.809Z,74.33
2018-06-18T00:51:11.334Z,74.52
2018-06-18T00:51:51.851Z,74.43
2018-06-18T00:52:32.384Z,74.27
2018-06-18T00:53:12.916Z,74.43
2018-06-18T00:53:53.444Z,74.62
2018-06-18T00:54:33.976Z,74.47
2018-06-18T00:55:14.503Z,74.08
2018-06-18T00:55:55.019Z,73.89
2018-06-18T00:56:35.547Z,73.5
2018-06-18T00:57:16.066Z,73.37
2018-06-18T00:57:56.590Z,73.75
2018-06-18T00:58:37.112Z,73.89
2018-06-18T00:59:17.643Z,73.41
2018-06-18T00:59:58.175Z,73.69
2018-06-18T01:00:38.691Z,73.31
2018-06-18T01:01:19.226Z,73.41
2018-06-18T01:01:59.752Z,73.41
2018-06-18T01:02:40.273Z,73.31
2018-06-18T01:03:20.797Z,73.6
2018-06-18T01:04:01.329Z,73.69
2018-06-18T01:04:41.853Z,73.5
2018-06-18T01:05:22.375Z,73.69
2018-06-18T01:06:02.896Z,73.99
2018-06-18T01:06:43.411Z,74.24
2018-06-18T01:07:23.947Z,73.47
2018-06-18T01:08:04.474Z,74.33
2018-06-18T01:08:45.002Z,74.14
2018-06-18T01:09:25.536Z,74.43
2018-06-18T01:10:06.057Z,73.85
2018-06-18T01:10:46.565Z,73.85
2018-06-18T01:11:27.114Z,73.85
2018-06-18T01:12:07.603Z,73.66
2018-06-18T01:12:48.121Z,73.79
2018-06-18T01:13:28.648Z,73.69
2018-06-18T01:14:09.167Z,73.89
2018-06-18T01:14:49.691Z,73.89
2018-06-18T01:15:30.207Z,73.79
2018-06-18T01:16:10.750Z,73.99
2018-06-18T01:16:51.264Z,74.08
2018-06-18T01:17:31.785Z,74.27
2018-06-18T01:18:12.318Z,74.18
2018-06-18T01:18:52.835Z,73.69
2018-06-18T01:19:33.373Z,74.08
2018-06-18T01:20:13.909Z,74.05
2018-06-18T01:20:54.432Z,73.79
2018-06-18T01:21:34.953Z,74.08
2018-06-18T01:23:33.109Z,73.99
2018-06-18T01:24:13.633Z,74.27
2018-06-18T01:24:54.163Z,74.18
2018-06-18T01:25:34.673Z,73.5
2018-06-18T01:26:15.191Z,73.69
2018-06-18T01:26:55.721Z,74.37
2018-06-18T01:27:36.236Z,73.79
2018-06-18T01:28:16.757Z,73.89
2018-06-18T01:28:57.278Z,73.5
2018-06-18T01:29:37.789Z,73.69
2018-06-18T01:30:18.306Z,74.08
2018-06-18T01:30:58.828Z,74.27
2018-06-18T01:31:39.350Z,73.69
2018-06-18T01:32:19.881Z,74.27
2018-06-18T01:33:00.571Z,74.37
2018-06-18T01:33:41.106Z,74.37
2018-06-18T01:34:21.610Z,74.43
2018-06-18T01:35:02.127Z,74.27
2018-06-18T01:35:42.637Z,74.14
2018-06-18T01:36:23.159Z,74.18
2018-06-18T01:37:03.679Z,74.27
2018-06-18T01:37:44.194Z,74.57
2018-06-18T01:38:24.708Z,74.52
2018-06-18T01:39:05.299Z,74.37
2018-06-18T01:39:45.763Z,74.47
2018-06-18T01:40:26.275Z,74.37
2018-06-18T01:41:06.797Z,74.57
2018-06-18T01:41:47.317Z,74.47
2018-06-18T01:42:27.831Z,74.62
2018-06-18T01:43:08.350Z,74.24
2018-06-18T01:43:48.901Z,74.33
2018-06-18T01:44:29.396Z,74.62
2018-06-18T01:45:09.933Z,74.52
2018-06-18T01:45:50.453Z,74.91
2018-06-18T01:46:30.973Z,74.72
2018-06-18T01:47:11.488Z,74.27
2018-06-18T01:47:52.008Z,73.95
2018-06-18T01:48:32.537Z,74.24
2018-06-18T01:49:13.047Z,74.33
2018-06-18T01:49:53.580Z,74.05
2018-06-18T01:50:34.106Z,74.24
2018-06-18T01:51:14.619Z,74.14
2018-06-18T01:51:55.142Z,74.52
2018-06-18T01:52:35.666Z,73.95
2018-06-18T01:53:16.192Z,74.62
2018-06-18T01:53:56.718Z,74.52
2018-06-18T01:54:37.247Z,74.52
2018-06-18T01:55:17.770Z,74.62
2018-06-18T01:55:58.295Z,74.72
2018-06-18T01:56:38.813Z,74.72
2018-06-18T01:57:19.345Z,74.33
2018-06-18T01:57:59.874Z,74.14
2018-06-18T01:58:40.387Z,74.62
2018-06-18T01:59:20.905Z,74.82
2018-06-18T02:00:01.432Z,74.72
2018-06-18T02:00:41.938Z,74.72
2018-06-18T02:01:22.474Z,74.43
2018-06-18T02:02:03.001Z,74.62
2018-06-18T02:02:43.529Z,74.24
2018-06-18T02:03:24.049Z,74.62
2018-06-18T02:04:04.569Z,74.62
2018-06-18T02:04:45.091Z,74.82
2018-06-18T02:05:25.612Z,74.72
2018-06-18T02:06:06.143Z,74.52
2018-06-18T02:06:46.658Z,75.2
2018-06-18T02:07:27.179Z,75.01
2018-06-18T02:08:07.719Z,74.14
2018-06-18T02:08:48.227Z,74.43
2018-06-18T02:09:28.750Z,74.91
2018-06-18T02:10:09.251Z,74.62
2018-06-18T02:10:49.773Z,74.62
2018-06-18T02:11:30.289Z,74.82
2018-06-18T02:12:10.794Z,74.82
2018-06-18T02:12:51.320Z,74.52
2018-06-18T02:13:31.840Z,74.62
2018-06-18T02:14:12.352Z,74.24
2018-06-18T02:14:52.894Z,74.72
2018-06-18T02:15:33.409Z,74.62
2018-06-18T02:16:13.969Z,74.43
2018-06-18T02:16:54.449Z,74.24
2018-06-18T02:17:34.979Z,74.62
2018-06-18T02:18:15.493Z,74.14
2018-06-18T02:18:56.028Z,74.43
2018-06-18T02:19:36.533Z,74.72
2018-06-18T02:20:17.056Z,74.62
2018-06-18T02:20:57.618Z,74.05
2018-06-18T02:21:38.132Z,74.43
2018-06-18T02:22:18.655Z,73.85
2018-06-18T02:22:59.177Z,74.52
2018-06-18T02:23:39.688Z,74.82
2018-06-18T02:24:20.226Z,74.33
2018-06-18T02:25:00.756Z,74.72
2018-06-18T02:25:41.278Z,74.52
2018-06-18T02:26:21.795Z,74.72
2018-06-18T02:27:02.348Z,74.72
2018-06-18T02:27:42.875Z,74.91
2018-06-18T02:28:23.397Z,74.05
2018-06-18T02:29:03.927Z,74.01
2018-06-18T02:29:44.453Z,74.72
2018-06-18T02:30:24.966Z,74.91
2018-06-18T02:31:05.474Z,74.52
2018-06-18T02:31:45.988Z,74.52
2018-06-18T02:32:26.501Z,74.82
2018-06-18T02:33:07.011Z,74.14
2018-06-18T02:33:47.532Z,74.24
2018-06-18T02:34:28.058Z,74.33
2018-06-18T02:35:08.585Z,74.14
2018-06-18T02:35:49.121Z,74.43
2018-06-18T02:36:29.631Z,73.85
2018-06-18T02:37:10.149Z,74.33
2018-06-18T02:37:50.730Z,73.75
2018-06-18T02:38:31.186Z,73.66
2018-06-18T02:39:11.702Z,74.24
2018-06-18T02:39:52.221Z,73.66
2018-06-18T02:40:32.733Z,73.47
2018-06-18T02:41:13.245Z,73.85
2018-06-18T02:41:53.768Z,73.57
2018-06-18T02:42:34.294Z,73.57
2018-06-18T02:43:14.803Z,73.75
2018-06-18T02:43:55.313Z,73.47
2018-06-18T02:44:35.831Z,73.37
2018-06-18T02:45:16.354Z,73.85
2018-06-18T02:45:56.889Z,73.85
2018-06-18T02:46:37.407Z,74.43
2018-06-18T02:47:17.928Z,73.85
2018-06-18T02:47:58.437Z,73.66
2018-06-18T02:48:38.949Z,73.75
2018-06-18T02:49:19.471Z,74.05
2018-06-18T02:49:59.987Z,73.75
2018-06-18T02:50:40.520Z,74.24
2018-06-18T02:51:21.091Z,74.24
2018-06-18T02:52:01.604Z,74.24
2018-06-18T02:52:42.126Z,74.33
2018-06-18T02:53:22.625Z,74.14
2018-06-18T02:54:03.156Z,73.85
2018-06-18T02:54:43.684Z,74.33
2018-06-18T02:55:24.193Z,74.14
2018-06-18T02:56:04.717Z,74.52
2018-06-18T02:56:45.238Z,74.72
2018-06-18T02:57:25.756Z,74.24
2018-06-18T02:58:06.276Z,74.24
2018-06-18T02:58:46.807Z,74.72
2018-06-18T02:59:27.336Z,74.43
2018-06-18T03:00:07.839Z,73.95
2018-06-18T03:00:48.374Z,74.52
2018-06-18T03:01:28.897Z,74.72
2018-06-18T03:02:09.416Z,74.58
2018-06-18T03:02:49.941Z,74.62
2018-06-18T03:03:30.464Z,74.82
2018-06-18T03:04:10.982Z,74.72
2018-06-18T03:04:51.499Z,75.16
2018-06-18T03:05:32.026Z,75.36
2018-06-18T03:06:12.540Z,74.88
2018-06-18T03:06:53.149Z,74.91
2018-06-18T03:07:33.673Z,74.91
2018-06-18T03:08:14.196Z,74.91
2018-06-18T03:08:54.720Z,74.91
2018-06-18T03:09:35.228Z,74.97
2018-06-18T03:10:15.746Z,75.2
2018-06-18T03:10:56.258Z,75.3
2018-06-18T03:11:36.775Z,75.49
2018-06-18T03:12:17.295Z,75.59
2018-06-18T03:12:57.807Z,75.49
2018-06-18T03:13:38.323Z,75.4
2018-06-18T03:14:18.836Z,75.36
2018-06-18T03:14:59.370Z,75.45
2018-06-18T03:15:39.904Z,75.59
2018-06-18T03:16:20.422Z,75.36
2018-06-18T03:17:00.946Z,75.84
2018-06-18T03:17:41.463Z,75.84
2018-06-18T03:18:22.045Z,75.74
2018-06-18T03:19:02.574Z,75.84
2018-06-18T03:19:43.109Z,75.45
2018-06-18T03:20:23.646Z,75.93
2018-06-18T03:21:04.158Z,75.88
2018-06-18T03:21:44.665Z,75.78
2018-06-18T03:22:25.189Z,75.1
2018-06-18T03:23:05.715Z,74.91
2018-06-18T03:23:46.232Z,75.01
2018-06-18T03:24:26.774Z,75.2
2018-06-18T03:25:07.287Z,75.07
2018-06-18T03:25:47.805Z,74.91
2018-06-18T03:26:28.327Z,74.72
2018-06-18T03:27:08.833Z,74.91
2018-06-18T03:27:49.345Z,75.01
2018-06-18T03:28:29.874Z,74.72
2018-06-18T03:29:10.396Z,74.72
2018-06-18T03:29:50.897Z,74.33
2018-06-18T03:30:31.408Z,73.95
2018-06-18T03:31:11.928Z,74.72
2018-06-18T03:31:52.438Z,74.72
2018-06-18T03:32:32.961Z,74.72
2018-06-18T03:33:13.519Z,74.82
2018-06-18T03:33:54.041Z,74.52
2018-06-18T03:34:34.567Z,74.91
2018-06-18T03:35:15.089Z,75.01
2018-06-18T03:35:55.609Z,75.2
2018-06-18T03:36:36.142Z,74.91
2018-06-18T03:37:16.665Z,74.82
2018-06-18T03:37:57.180Z,74.72
2018-06-18T03:38:37.703Z,74.43
2018-06-18T03:39:18.220Z,74.62
2018-06-18T03:39:58.729Z,74.52
2018-06-18T03:40:39.260Z,74.72
2018-06-18T03:41:19.778Z,74.62
2018-06-18T03:42:00.291Z,74.72
2018-06-18T03:42:40.824Z,74.43
2018-06-18T03:43:21.336Z,75.1
2018-06-18T03:44:01.870Z,74.82
2018-06-18T03:44:42.392Z,75.01
2018-06-18T03:45:22.923Z,74.62
2018-06-18T03:46:03.456Z,74.82
2018-06-18T03:46:43.983Z,74.62
2018-06-18T03:47:24.489Z,74.05
2018-06-18T03:48:05.017Z,74.14
2018-06-18T03:48:45.530Z,74.82
2018-06-18T03:49:26.046Z,74.62
2018-06-18T03:50:06.577Z,74.91
2018-06-18T03:50:47.086Z,75.2
2018-06-18T03:51:27.609Z,74.91
2018-06-18T03:52:08.128Z,75.05
2018-06-18T03:52:48.645Z,74.76
2018-06-18T03:53:29.165Z,74.57
2018-06-18T03:54:09.679Z,74.95
2018-06-18T03:54:50.206Z,74.52
2018-06-18T03:55:30.722Z,75.2
2018-06-18T03:56:11.250Z,74.52
2018-06-18T03:56:51.747Z,74.43
2018-06-18T03:57:32.273Z,74.82
2018-06-18T03:58:12.813Z,74.62
2018-06-18T03:58:53.334Z,75.05
2018-06-18T03:59:33.852Z,74.82
2018-06-18T04:00:14.390Z,74.85
2018-06-18T04:00:54.916Z,73.89
2018-06-18T04:01:35.434Z,74.18
2018-06-18T04:02:15.956Z,74.47
2018-06-18T04:02:56.495Z,74.57
2018-06-18T04:03:37.114Z,73.89
2018-06-18T04:04:17.659Z,73.99
2018-06-18T04:04:58.176Z,73.83
2018-06-18T04:05:38.687Z,73.63
2018-06-18T04:06:19.199Z,72.96
2018-06-18T04:06:59.721Z,72.28
2018-06-18T04:07:40.236Z,72
2018-06-18T04:08:20.752Z,72.38
2018-06-18T04:09:01.266Z,72
2018-06-18T04:09:41.824Z,72
2018-06-18T04:10:22.349Z,72.28
2018-06-18T04:11:02.891Z,73.06
2018-06-18T04:11:43.403Z,73.06
2018-06-18T04:12:24.059Z,72.28
2018-06-18T04:13:04.505Z,72.67
2018-06-18T04:13:45.041Z,72.86
2018-06-18T04:14:25.549Z,72.28
2018-06-18T04:15:06.077Z,72.63
2018-06-18T04:15:46.593Z,72.54
2018-06-18T04:16:27.107Z,73.21
2018-06-18T04:17:07.619Z,72.92
2018-06-18T04:17:48.141Z,73.21
2018-06-18T04:18:28.680Z,73.41
2018-06-18T04:19:09.214Z,73.21
2018-06-18T04:19:49.735Z,73.41
2018-06-18T04:20:30.249Z,73.5
2018-06-18T04:21:10.775Z,73.18
2018-06-18T04:21:51.290Z,73.79
2018-06-18T04:22:31.803Z,74.08
2018-06-18T04:23:12.326Z,73.47
2018-06-18T04:23:53.563Z,73.6
2018-06-18T04:24:34.092Z,73.66
2018-06-18T04:25:14.625Z,74.43
2018-06-18T04:25:55.148Z,74.33
2018-06-18T04:26:35.670Z,74.43
2018-06-18T04:27:16.190Z,74.62
2018-06-18T04:27:56.709Z,74.52
2018-06-18T04:28:37.226Z,74.24
2018-06-18T04:29:17.775Z,74.52
2018-06-18T04:29:58.284Z,74.37
2018-06-18T04:30:38.812Z,73.69
2018-06-18T04:31:19.341Z,73.6
2018-06-18T04:31:59.859Z,73.99
2018-06-18T04:32:40.394Z,73.69
2018-06-18T04:33:20.932Z,73.21
2018-06-18T04:34:01.445Z,73.31
2018-06-18T04:34:41.958Z,73.31
2018-06-18T04:35:22.490Z,73.79
2018-06-18T04:36:03.016Z,73.11
2018-06-18T04:36:43.537Z,73.41
2018-06-18T04:37:24.061Z,73.6
2018-06-18T04:38:04.586Z,73.21
2018-06-18T04:38:45.103Z,73.25
2018-06-18T04:39:25.621Z,73.02
2018-06-18T04:40:06.143Z,72.86
2018-06-18T04:40:46.712Z,72.83
2018-06-18T04:41:27.219Z,72.77
2018-06-18T04:42:07.738Z,72.96
2018-06-18T04:42:48.253Z,73.21
2018-06-18T04:43:28.792Z,73.02
2018-06-18T04:44:09.313Z,73.15
2018-06-18T04:44:49.879Z,72.67
2018-06-18T04:45:30.359Z,73.31
2018-06-18T04:46:10.890Z,73.11
2018-06-18T04:46:51.404Z,72.77
2018-06-18T04:47:31.924Z,72.86
2018-06-18T04:48:12.446Z,72.77
2018-06-18T04:48:53.001Z,72.92
2018-06-18T04:49:33.522Z,73.15
2018-06-18T04:50:14.040Z,72.58
2018-06-18T04:50:54.560Z,73.44
2018-06-18T04:51:35.086Z,72.77
2018-06-18T04:52:15.603Z,72.86
2018-06-18T04:52:56.134Z,72.86
2018-06-18T04:53:36.664Z,72.38
2018-06-18T04:54:17.185Z,72.67
2018-06-18T04:54:57.714Z,72.28
2018-06-18T04:55:38.242Z,71.8
2018-06-18T04:56:18.818Z,71.8
2018-06-18T04:56:59.301Z,72.28
2018-06-18T04:57:39.827Z,71.64
2018-06-18T04:58:20.338Z,71.94
2018-06-18T04:59:00.862Z,71.45
2018-06-18T04:59:41.383Z,71.26
2018-06-18T05:00:21.917Z,71.36
2018-06-18T05:01:02.432Z,71.45
2018-06-18T05:01:42.957Z,71.16
2018-06-18T05:02:23.479Z,71.16
2018-06-18T05:03:04.011Z,71.64
2018-06-18T05:03:44.527Z,71.55
2018-06-18T05:04:25.054Z,71.84
2018-06-18T05:05:05.586Z,71.84
2018-06-18T05:05:46.110Z,71.84
2018-06-18T05:06:26.623Z,71.42
2018-06-18T05:07:07.115Z,72.09
2018-06-18T05:07:47.713Z,72
2018-06-18T05:08:28.185Z,71.7
2018-06-18T05:09:08.705Z,71.7
2018-06-18T05:09:49.230Z,71.9
2018-06-18T05:10:29.750Z,71.9
2018-06-18T05:11:10.309Z,72.19
2018-06-18T05:11:50.816Z,72.77
2018-06-18T05:12:31.403Z,72.28
2018-06-18T05:13:11.920Z,72.77
2018-06-18T05:13:52.436Z,72.96
2018-06-18T05:14:32.962Z,72.67
2018-06-18T05:15:13.480Z,72.77
2018-06-18T05:15:54.014Z,72.28
2018-06-18T05:16:34.528Z,71.8
2018-06-18T05:17:15.059Z,72.38
2018-06-18T05:17:55.578Z,72.19
2018-06-18T05:18:36.098Z,72.28
2018-06-18T05:19:16.604Z,71.7
2018-06-18T05:19:57.121Z,71.9
2018-06-18T05:20:37.653Z,71.22
2018-06-18T05:21:18.187Z,71.36
2018-06-18T05:21:58.704Z,71.36
2018-06-18T05:22:39.237Z,71.26
2018-06-18T05:23:19.757Z,71.26
2018-06-18T05:24:00.280Z,76.76
2018-06-18T05:24:40.814Z,77.53
2018-06-18T05:25:21.366Z,79.08
2018-06-18T05:26:01.886Z,74.89
2018-06-18T05:26:42.412Z,74.69
2018-06-18T05:27:22.939Z,76.28
2018-06-18T05:28:03.464Z,80.24
2018-06-18T05:28:43.983Z,83.23
2018-06-18T05:29:24.499Z,76.57
2018-06-18T05:30:05.005Z,75.99
2018-06-18T05:30:45.524Z,78.92
2018-06-18T05:31:26.055Z,79.31
2018-06-18T05:32:06.658Z,81.92
2018-06-18T05:32:47.192Z,74.93
2018-06-18T05:33:27.714Z,73.58
2018-06-18T05:34:08.228Z,81.4
2018-06-18T05:34:48.749Z,83.52
2018-06-18T05:35:29.326Z,77.25
2018-06-18T05:36:09.818Z,74.93
2018-06-18T05:36:50.344Z,74.64
2018-06-18T05:37:30.865Z,81.59
2018-06-18T05:38:11.392Z,81.73
2018-06-18T05:38:51.902Z,81.63
2018-06-18T05:39:32.441Z,74.38
2018-06-18T05:40:12.963Z,75.06
2018-06-18T05:40:53.478Z,81.05
2018-06-18T05:41:34.115Z,81.44
2018-06-18T05:42:14.531Z,84.33
2018-06-18T05:42:55.053Z,81.44
2018-06-18T05:43:35.592Z,78.06
2018-06-18T05:44:16.121Z,80.22
2018-06-18T05:44:56.644Z,79.22
2018-06-18T05:45:37.152Z,82.79
2018-06-18T05:46:17.690Z,75.35
2018-06-18T05:46:58.229Z,76.9
2018-06-18T05:47:38.750Z,80.22
2018-06-18T05:48:19.278Z,81.67
2018-06-18T05:48:59.821Z,78.48
2018-06-18T05:49:40.344Z,78.58
2018-06-18T05:50:20.899Z,77.32
2018-06-18T05:51:01.393Z,77.13
2018-06-18T05:51:41.925Z,78.19
2018-06-18T05:52:22.456Z,76.84
2018-06-18T05:53:02.987Z,77.42
2018-06-18T05:53:43.516Z,76.68
2018-06-18T05:54:24.045Z,76.59
2018-06-18T05:55:04.566Z,78.81
2018-06-18T05:55:45.089Z,72.81
2018-06-18T05:56:25.600Z,76.87
2018-06-18T05:57:06.133Z,78.19
2018-06-18T05:57:46.652Z,76.26
2018-06-18T05:58:27.187Z,74.36
2018-06-18T05:59:07.696Z,75.43
2018-06-18T05:59:48.236Z,76.78
2018-06-18T06:00:28.764Z,76.78
2018-06-18T06:01:09.291Z,76.29
2018-06-18T06:01:49.815Z,74.94
2018-06-18T06:02:30.336Z,72.33
2018-06-18T06:03:10.878Z,73.59
2018-06-18T06:03:51.387Z,74.75
2018-06-18T06:04:31.940Z,73.24
2018-06-18T06:05:12.516Z,74.46
2018-06-18T06:05:53.040Z,73.97
2018-06-18T06:06:33.579Z,73.82
2018-06-18T06:07:14.084Z,73.14
2018-06-18T06:07:54.606Z,74.01
2018-06-18T06:08:35.129Z,73.91
2018-06-18T06:09:15.663Z,76.76
2018-06-18T06:09:56.178Z,79.37
2018-06-18T06:10:36.692Z,75.79
2018-06-18T06:11:17.215Z,73.75
2018-06-18T06:11:57.741Z,72.02
2018-06-18T06:12:38.264Z,69.59
2018-06-18T06:13:18.790Z,77.63
2018-06-18T06:13:59.316Z,80.34
2018-06-18T06:14:39.841Z,81.83
2018-06-18T06:15:20.378Z,82.12
2018-06-18T06:16:00.887Z,79.84
2018-06-18T06:16:41.466Z,75.77
2018-06-18T06:17:21.956Z,74.84
2018-06-18T06:18:02.491Z,74.45
2018-06-18T06:18:43.034Z,75.9
2018-06-18T06:19:23.565Z,75.23
2018-06-18T06:20:04.096Z,76.78
2018-06-18T06:20:44.610Z,74.84
2018-06-18T06:21:25.132Z,75.9
2018-06-18T06:22:05.648Z,79.68
2018-06-18T06:22:46.179Z,79.39
2018-06-18T06:23:26.709Z,71.34
2018-06-18T06:24:07.234Z,71.5
2018-06-18T06:24:47.760Z,77.8
2018-06-18T06:25:28.283Z,78.19
2018-06-18T06:26:08.885Z,70.34
2018-06-18T06:26:49.388Z,75.03
2018-06-18T06:27:29.918Z,74.12
2018-06-18T06:28:10.436Z,78.71
2018-06-18T06:28:50.957Z,80.07
2018-06-18T06:29:31.522Z,81.13
2018-06-18T06:30:11.989Z,78.97
2018-06-18T06:30:52.523Z,76.83
2018-06-18T06:31:33.043Z,80.26
2018-06-18T06:32:13.587Z,81.62
2018-06-18T06:32:54.114Z,79.35
2018-06-18T06:33:34.682Z,80.75
2018-06-18T06:34:15.204Z,81.52
2018-06-18T06:34:55.759Z,80.26
2018-06-18T06:35:36.281Z,78.52
2018-06-18T06:36:16.812Z,68.5
2018-06-18T06:36:57.339Z,70.54
2018-06-18T06:37:37.863Z,74.7
2018-06-18T06:38:18.399Z,75.73
2018-06-18T06:38:58.921Z,76.99
2018-06-18T06:39:39.444Z,76.79
2018-06-18T06:40:19.955Z,77.86
2018-06-18T06:41:00.478Z,78.74
2018-06-18T06:41:41.012Z,77.28
2018-06-18T06:42:21.544Z,76.64
2018-06-18T06:43:02.080Z,77.61
2018-06-18T06:43:42.605Z,75.48
2018-06-18T06:44:23.123Z,75.42
2018-06-18T06:45:03.673Z,74.26
2018-06-18T06:45:44.192Z,72.31
2018-06-18T06:46:24.718Z,72.31
2018-06-18T06:47:05.253Z,69.5
2018-06-18T06:47:45.777Z,69.7
2018-06-18T06:48:26.302Z,73.86
2018-06-18T06:49:06.833Z,71.6
2018-06-18T06:49:47.356Z,73.58
2018-06-18T06:50:27.882Z,73.25
2018-06-18T06:51:08.412Z,72.18
2018-06-18T06:51:48.943Z,73.15
2018-06-18T06:52:29.463Z,73.15
2018-06-18T06:53:09.976Z,73.09
2018-06-18T06:53:50.513Z,73.25
2018-06-18T06:54:31.017Z,70.54
2018-06-18T06:55:11.547Z,68.99
2018-06-18T06:55:52.130Z,69.08
2018-06-18T06:56:32.604Z,69.12
2018-06-18T06:57:13.113Z,66.2
2018-06-18T06:57:53.630Z,72.12
2018-06-18T06:58:34.162Z,72.02
2018-06-18T06:59:14.717Z,75.42
2018-06-18T06:59:55.235Z,71.25
2018-06-18T07:00:35.745Z,73.86
2018-06-18T07:01:16.331Z,71.83
2018-06-18T07:01:56.790Z,73.77
2018-06-18T07:02:37.315Z,74.84
2018-06-18T07:03:17.834Z,72.89
2018-06-18T07:03:58.345Z,65.63
2018-06-18T07:04:38.875Z,68.54
2018-06-18T07:05:19.394Z,69.02
2018-06-18T07:05:59.913Z,75.23
2018-06-18T07:06:40.444Z,77.55
2018-06-18T07:07:20.989Z,76.97
2018-06-18T07:08:01.544Z,79.3
2018-06-18T07:08:42.057Z,80.46
2018-06-18T07:09:22.565Z,79.3
2018-06-18T07:10:03.108Z,80.46
2018-06-18T07:10:43.647Z,79.3
2018-06-18T07:11:24.163Z,79.49
2018-06-18T07:12:04.690Z,79.63
2018-06-18T07:12:45.203Z,79.53
2018-06-18T07:13:25.781Z,80.5
2018-06-18T07:14:06.238Z,79.04
2018-06-18T07:14:46.754Z,80.21
2018-06-18T07:15:27.277Z,75.26
2018-06-18T07:16:07.801Z,73.61
2018-06-18T07:16:48.314Z,73.16
2018-06-18T07:17:28.831Z,71.7
2018-06-18T07:18:09.362Z,75.49
2018-06-18T07:18:49.901Z,77.24
2018-06-18T07:19:30.424Z,74.29
2018-06-18T07:20:10.949Z,73.07
2018-06-18T07:20:51.475Z,73.46
2018-06-18T07:21:31.996Z,72.39
2018-06-18T07:22:12.509Z,73.84
2018-06-18T07:22:53.056Z,72
2018-06-18T07:23:33.559Z,71.51
2018-06-18T07:24:14.079Z,72
2018-06-18T07:24:54.616Z,71.61
2018-06-18T07:25:35.128Z,71.12
2018-06-18T07:26:15.655Z,65.4
2018-06-18T07:26:56.179Z,68.89
2018-06-18T07:27:36.700Z,69.09
2018-06-18T07:28:17.232Z,68.89
2018-06-18T07:28:57.740Z,68.54
2018-06-18T07:29:38.268Z,69.41
2018-06-18T07:30:18.881Z,69.76
2018-06-18T07:30:59.328Z,68.6
2018-06-18T07:31:39.841Z,68.99
2018-06-18T07:32:20.361Z,63.17
2018-06-18T07:33:00.883Z,61.07
2018-06-18T07:33:41.412Z,65.63
2018-06-18T07:34:21.939Z,67.47
2018-06-18T07:35:02.461Z,68.83
2018-06-18T07:35:42.993Z,68.21
2018-06-18T07:36:23.536Z,69.8
2018-06-18T07:37:04.061Z,73.16
2018-06-18T07:37:44.593Z,71.64
2018-06-18T07:38:25.182Z,72.13
2018-06-18T07:39:05.668Z,68.54
2018-06-18T07:39:46.183Z,68.93
2018-06-18T07:40:26.719Z,70.97
2018-06-18T07:41:07.254Z,71.74
2018-06-18T07:41:47.793Z,70.45
2018-06-18T07:42:28.318Z,67.05
2018-06-18T07:43:08.858Z,65.01
2018-06-18T07:43:49.373Z,66.14
2018-06-18T07:44:29.902Z,63.17
2018-06-18T07:45:10.417Z,64.01
2018-06-18T07:45:50.944Z,65.01
2018-06-18T07:46:31.466Z,61.81
2018-06-18T07:47:11.984Z,59.48
2018-06-18T07:47:52.504Z,58.41
2018-06-18T07:48:33.061Z,60.94
2018-06-18T07:49:13.590Z,66.82
2018-06-18T07:49:54.128Z,66.05
2018-06-18T07:50:34.634Z,69.64
2018-06-18T07:51:15.157Z,68.57
2018-06-18T07:51:55.686Z,65.66
2018-06-18T07:52:36.210Z,64.92
2018-06-18T07:53:16.730Z,67.05
2018-06-18T07:53:57.254Z,65.89
2018-06-18T07:54:37.781Z,63.29
2018-06-18T07:55:18.314Z,63.29
2018-06-18T07:55:58.848Z,59.61
2018-06-18T07:56:39.393Z,58.54
2018-06-18T07:57:19.904Z,57.76
2018-06-18T07:58:00.435Z,63.88
2018-06-18T07:58:40.972Z,70.09
2018-06-18T07:59:21.477Z,64.85
2018-06-18T08:00:02.034Z,63.56
2018-06-18T08:00:42.546Z,66.21
2018-06-18T08:01:23.073Z,70.48
2018-06-18T08:02:03.603Z,71.64
2018-06-18T08:02:44.149Z,63.78
2018-06-18T08:03:24.668Z,65.72
2018-06-18T08:04:05.198Z,62.52
2018-06-18T08:04:45.734Z,63.78
2018-06-18T08:05:26.263Z,61.84
2018-06-18T08:06:06.794Z,65.82
2018-06-18T08:06:47.329Z,70.67
2018-06-18T08:07:27.844Z,70.29
2018-06-18T08:08:08.378Z,65.01
2018-06-18T08:08:48.912Z,68.02
2018-06-18T08:09:29.478Z,69.24
2018-06-18T08:10:09.983Z,65.01
2018-06-18T08:10:50.536Z,69.15
2018-06-18T08:11:31.074Z,66.82
2018-06-18T08:12:11.591Z,64.4
2018-06-18T08:12:52.127Z,62.65
2018-06-18T08:13:32.645Z,65.56
2018-06-18T08:14:13.177Z,70.41
2018-06-18T08:14:53.703Z,71.38
2018-06-18T08:15:34.242Z,71.58
2018-06-18T08:16:14.774Z,71.48
2018-06-18T08:16:55.334Z,71.28
2018-06-18T08:17:35.852Z,72.29
2018-06-18T08:18:16.380Z,67.89
2018-06-18T08:18:56.911Z,64.72
2018-06-18T08:19:37.418Z,65.59
2018-06-18T08:20:17.968Z,67.37
2018-06-18T08:20:58.515Z,69.48
2018-06-18T08:21:39.043Z,68.7
2018-06-18T08:22:19.564Z,69.38
2018-06-18T08:23:00.085Z,67.24
2018-06-18T08:23:40.685Z,69.09
2018-06-18T08:24:21.168Z,63.43
2018-06-18T08:25:01.701Z,62.26
2018-06-18T08:25:42.251Z,63.62
2018-06-18T08:26:22.769Z,66.82
2018-06-18T08:27:03.305Z,65.66
2018-06-18T08:27:43.832Z,73.71
2018-06-18T08:28:24.357Z,74.29
2018-06-18T08:29:04.892Z,71.19
2018-06-18T08:29:45.414Z,68.66
2018-06-18T08:30:25.947Z,62.95
2018-06-18T08:31:06.462Z,69.38
2018-06-18T08:31:46.981Z,69.06
2018-06-18T08:32:27.504Z,64.69
2018-06-18T08:33:08.021Z,67.6
2018-06-18T08:33:48.547Z,70.41
2018-06-18T08:34:29.070Z,70.7
2018-06-18T08:35:09.603Z,68.47
2018-06-18T08:35:50.143Z,65.47
2018-06-18T08:36:30.676Z,66.82
2018-06-18T08:37:11.208Z,68.96
2018-06-18T08:37:51.729Z,69.34
2018-06-18T08:38:32.258Z,63.07
2018-06-18T08:39:12.774Z,65.5
2018-06-18T08:39:53.310Z,67.31
2018-06-18T08:40:33.836Z,64.72
2018-06-18T08:41:14.376Z,60.64
2018-06-18T08:41:54.946Z,63.65
2018-06-18T08:42:35.468Z,64.14
2018-06-18T08:43:15.981Z,69.06
2018-06-18T08:43:56.506Z,68.47
2018-06-18T08:44:37.036Z,68.28
2018-06-18T08:45:17.545Z,68.76